createdAt,value
2019-02-27T13:50:11.160Z,41.50
2019-02-27T13:52:39.469Z,41.00
2019-02-27T13:55:11.881Z,40.30
2019-02-27T13:57:40.281Z,38.60
2019-02-27T14:00:12.144Z,36.60
2019-02-27T14:02:40.430Z,35.50
2019-02-27T14:05:09.366Z,34.70
2019-02-27T14:07:37.732Z,34.20
2019-02-27T14:10:09.421Z,33.20
2019-02-27T14:12:37.692Z,32.00
2019-02-27T14:15:09.333Z,30.90
2019-02-27T14:17:41.307Z,31.90
2019-02-27T14:20:16.069Z,32.50
2019-02-27T14:22:45.158Z,31.40
2019-02-27T14:25:19.684Z,30.00
2019-02-27T14:27:48.141Z,31.80
2019-02-27T14:30:24.827Z,32.50
2019-02-27T14:32:53.181Z,33.30
2019-02-27T14:35:21.492Z,33.70
2019-02-27T14:37:51.035Z,33.90
2019-02-27T14:40:21.167Z,35.70
2019-02-27T14:42:53.810Z,36.50
2019-02-27T14:45:23.807Z,37.50
2019-02-27T14:47:52.576Z,37.20
2019-02-27T14:50:22.389Z,37.40
2019-02-27T14:52:51.022Z,38.70
2019-02-27T14:55:20.403Z,35.80
2019-02-27T14:57:51.164Z,37.10
2019-02-27T15:00:21.818Z,39.20
2019-02-27T15:02:52.133Z,38.60
2019-02-27T15:05:20.743Z,38.70
2019-02-27T15:07:49.045Z,40.00
2019-02-27T15:10:19.147Z,40.60
2019-02-27T15:12:47.498Z,40.00
2019-02-27T15:15:20.648Z,38.40
2019-02-27T15:17:51.226Z,38.30
2019-02-27T15:20:21.553Z,38.90
2019-02-27T15:22:52.554Z,38.60
2019-02-27T15:25:19.848Z,38.90
2019-02-27T15:27:48.412Z,39.40
2019-02-27T15:30:25.384Z,40.60
2019-02-27T15:32:53.651Z,40.60
2019-02-27T15:35:22.310Z,40.50
2019-02-27T15:37:50.868Z,41.50
2019-02-27T15:40:29.524Z,41.60
2019-02-27T15:42:57.454Z,41.50
2019-02-27T15:45:26.845Z,43.20
2019-02-27T15:47:55.200Z,43.40
2019-02-27T15:50:31.910Z,42.10
2019-02-27T15:53:00.191Z,41.50
2019-02-27T15:55:32.864Z,40.90
2019-02-27T15:57:58.489Z,42.00
2019-02-27T16:00:27.741Z,43.30
2019-02-27T16:02:56.107Z,44.30
2019-02-27T16:05:29.991Z,44.90
2019-02-27T16:07:54.395Z,45.50
2019-02-27T16:10:27.712Z,45.90
2019-02-27T16:12:59.619Z,46.50
2019-02-27T16:15:26.107Z,46.40
2019-02-27T16:17:54.459Z,46.20
2019-02-27T16:20:25.990Z,45.80
2019-02-27T16:22:54.368Z,45.90
2019-02-27T16:25:27.603Z,45.60
2019-02-27T16:27:56.085Z,45.20
2019-02-27T16:30:34.838Z,45.30
2019-02-27T16:33:03.416Z,44.90
2019-02-27T16:35:31.767Z,45.20
2019-02-27T16:38:00.411Z,46.70
2019-02-27T16:40:30.189Z,48.30
2019-02-27T16:42:58.752Z,49.20
2019-02-27T16:45:36.505Z,51.50
2019-02-27T16:48:03.126Z,52.10
2019-02-27T16:50:32.335Z,51.90
2019-02-27T16:53:00.624Z,52.30
2019-02-27T16:55:29.554Z,51.90
2019-02-27T16:57:58.229Z,53.80
2019-02-27T17:00:31.469Z,54.10
2019-02-27T17:02:59.768Z,55.00
2019-02-27T17:05:28.061Z,55.60
2019-02-27T17:08:00.660Z,55.70
2019-02-27T17:10:29.378Z,55.70
2019-02-27T17:12:57.945Z,56.30
2019-02-27T17:15:26.281Z,55.80
2019-02-27T17:17:54.579Z,55.90
2019-02-27T17:20:24.599Z,57.50
2019-02-27T17:22:53.166Z,58.70
2019-02-27T17:25:21.507Z,59.40
2019-02-27T17:27:51.221Z,59.70
2019-02-27T17:30:28.545Z,60.20
2019-02-27T17:32:57.122Z,60.10
2019-02-27T17:35:25.502Z,60.20
2019-02-27T17:37:53.909Z,61.20
2019-02-27T17:40:22.352Z,63.40
2019-02-27T17:42:53.559Z,62.30
2019-02-27T17:45:23.038Z,62.60
2019-02-27T17:47:51.485Z,62.80
2019-02-27T17:50:19.769Z,62.50
2019-02-27T17:52:49.051Z,62.00
2019-02-27T17:55:19.096Z,62.50
2019-02-27T17:57:47.376Z,62.80
2019-02-27T18:00:34.635Z,64.10
2019-02-27T18:03:05.087Z,65.70
2019-02-27T18:05:33.213Z,65.70
2019-02-27T18:08:03.415Z,66.00
2019-02-27T18:10:37.085Z,66.90
2019-02-27T18:13:02.596Z,68.80
2019-02-27T18:15:31.225Z,68.10
2019-02-27T18:17:59.868Z,68.00
2019-02-27T18:20:31.812Z,69.80
2019-02-27T18:22:59.538Z,70.30
2019-02-27T18:25:28.184Z,69.20
2019-02-27T18:27:59.728Z,70.30
2019-02-27T18:30:26.901Z,71.00
2019-02-27T18:32:55.184Z,71.70
2019-02-27T18:35:26.193Z,71.30
2019-02-27T18:37:54.553Z,71.40
2019-02-27T18:40:22.959Z,72.60
2019-02-27T18:42:55.170Z,74.20
2019-02-27T18:45:28.949Z,74.20
2019-02-27T18:47:58.645Z,74.20
2019-02-27T18:50:27.641Z,74.40
2019-02-27T18:52:56.001Z,75.10
2019-02-27T18:55:29.411Z,74.30
2019-02-27T18:57:54.286Z,75.70
2019-02-27T19:00:24.977Z,76.80
2019-02-27T19:02:59.163Z,75.00
2019-02-27T19:05:27.443Z,76.10
2019-02-27T19:07:56.087Z,76.60
2019-02-27T19:10:24.442Z,78.30
2019-02-27T19:12:52.727Z,77.60
2019-02-27T19:15:23.222Z,78.10
2019-02-27T19:17:51.636Z,78.30
2019-02-27T19:20:32.246Z,80.90
2019-02-27T19:23:00.820Z,79.40
2019-02-27T19:25:34.304Z,80.60
2019-02-27T19:27:59.698Z,82.00
2019-02-27T19:30:28.167Z,81.60
2019-02-27T19:33:01.543Z,82.10
2019-02-27T19:35:26.549Z,85.90
2019-02-27T19:37:55.609Z,81.80
2019-02-27T19:40:23.875Z,82.00
2019-02-27T19:43:00.388Z,83.20
2019-02-27T19:45:28.830Z,83.60
2019-02-27T19:47:57.118Z,85.00
2019-02-27T19:50:25.624Z,85.70
2019-02-27T19:52:53.922Z,87.50
2019-02-27T19:55:26.497Z,84.40
2019-02-27T19:57:52.476Z,86.10
2019-02-27T20:00:35.180Z,86.50
2019-02-27T20:03:03.694Z,84.60
2019-02-27T20:05:33.598Z,85.60
2019-02-27T20:08:02.542Z,86.60
2019-02-27T20:10:33.283Z,86.60
2019-02-27T20:13:01.402Z,87.30
2019-02-27T20:15:29.966Z,85.40
2019-02-27T20:17:58.293Z,87.10
2019-02-27T20:20:26.855Z,88.90
2019-02-27T20:22:55.268Z,88.70
2019-02-27T20:25:25.345Z,89.60
2019-02-27T20:27:53.617Z,86.20
2019-02-27T20:30:23.258Z,87.40
2019-02-27T20:32:51.527Z,89.50
2019-02-27T20:35:20.785Z,89.00
2019-02-27T20:37:50.142Z,90.00
2019-02-27T20:40:19.929Z,87.80
2019-02-27T20:42:50.757Z,87.20
2019-02-27T20:45:22.336Z,88.80
2019-02-27T20:47:57.806Z,90.20
2019-02-27T20:50:43.076Z,90.60
2019-02-27T20:53:13.199Z,88.50
2019-02-27T20:55:41.844Z,90.20
2019-02-27T20:58:10.195Z,88.70
2019-02-27T21:00:38.560Z,90.20
2019-02-27T21:03:06.911Z,89.90
2019-02-27T21:05:35.183Z,89.00
2019-02-27T21:08:03.459Z,90.20
2019-02-27T21:10:32.883Z,89.60
2019-02-27T21:13:01.245Z,91.30
2019-02-27T21:15:32.601Z,90.40
2019-02-27T21:17:59.885Z,90.90
2019-02-27T21:20:28.247Z,89.10
2019-02-27T21:22:59.890Z,90.20
2019-02-27T21:25:26.636Z,90.10
2019-02-27T21:27:54.970Z,88.90
2019-02-27T21:30:23.895Z,90.80
2019-02-27T21:32:52.163Z,90.00
2019-02-27T21:35:20.735Z,89.90
2019-02-27T21:37:50.953Z,91.20
2019-02-27T21:40:19.490Z,90.00
2019-02-27T21:42:50.906Z,90.80
2019-02-27T21:45:22.392Z,91.30
2019-02-27T21:47:51.910Z,90.60
2019-02-27T21:50:22.388Z,90.40
2019-02-27T21:52:54.460Z,91.00
2019-02-27T21:55:20.692Z,90.90
2019-02-27T21:57:49.245Z,90.60
2019-02-27T22:00:25.443Z,90.40
2019-02-27T22:02:54.792Z,90.30
2019-02-27T22:05:23.139Z,91.20
2019-02-27T22:07:51.516Z,90.00
2019-02-27T22:10:20.585Z,92.00
2019-02-27T22:12:49.080Z,90.90
2019-02-27T22:15:26.465Z,91.00
2019-02-27T22:17:54.853Z,91.50
2019-02-27T22:20:25.824Z,91.30
2019-02-27T22:22:53.847Z,90.50
2019-02-27T22:25:22.413Z,90.80
2019-02-27T22:27:51.065Z,91.00
2019-02-27T22:30:20.575Z,90.50
2019-02-27T22:32:49.217Z,91.70
2019-02-27T22:35:17.603Z,92.60
2019-02-27T22:37:51.019Z,92.70
2019-02-27T22:40:22.734Z,93.00
2019-02-27T22:42:51.120Z,92.30
2019-02-27T22:45:20.531Z,92.10
2019-02-27T22:47:49.831Z,91.60
2019-02-27T22:50:20.378Z,90.80
2019-02-27T22:52:54.087Z,91.40
2019-02-27T22:55:19.020Z,93.10
2019-02-27T22:57:47.302Z,92.90
2019-02-27T23:00:43.094Z,93.70
2019-02-27T23:03:10.230Z,92.20
2019-02-27T23:05:39.203Z,91.70
2019-02-27T23:08:07.534Z,91.00
2019-02-27T23:10:36.060Z,92.00
2019-02-27T23:13:04.357Z,90.90
2019-02-27T23:15:32.674Z,91.60
2019-02-27T23:18:02.626Z,91.20
2019-02-27T23:20:31.319Z,90.90
2019-02-27T23:23:02.118Z,91.30
2019-02-27T23:25:29.625Z,92.10
2019-02-27T23:28:00.961Z,92.20
2019-02-27T23:30:28.182Z,91.30
2019-02-27T23:32:59.440Z,92.10
2019-02-27T23:35:26.845Z,93.00
2019-02-27T23:37:55.136Z,92.50
2019-02-27T23:40:23.697Z,92.10
2019-02-27T23:42:52.011Z,91.70
2019-02-27T23:45:20.293Z,92.40
2019-02-27T23:47:48.554Z,93.90
2019-02-27T23:50:16.849Z,93.30
2019-02-27T23:52:45.210Z,92.80
2019-02-27T23:55:13.499Z,93.40
2019-02-27T23:57:41.764Z,92.30
